Time,TemperatureF,DewpointF,PressureIn,WindDirection,WindDirectionDegrees,WindSpeedMPH,WindSpeedGustMPH,Humidity,HourlyPrecipIn,Conditions,Clouds,dailyrainin,SolarRadiationWatts/m^2,SoftwareType,DateUTC
2013-02-11 00:00:00,40.3,33.3,29.71,SSE,158,11.2,17.6,76,0.00,OVC,,0.09,0.0,WeatherDisplay:10.37,2013-02-11 05:00:00,
2013-02-11 00:05:00,40.5,33.5,29.71,SSW,202,9.8,13.8,76,0.00,RA,OVC,0.00,0.0,WeatherDisplay:10.37,2013-02-11 05:05:00,
2013-02-11 00:10:00,40.5,33.8,29.71,SSW,202,6.2,8.1,77,0.00,RA,OVC,0.00,0.0,WeatherDisplay:10.37,2013-02-11 05:10:00,
2013-02-11 00:15:00,40.6,34.0,29.71,SSW,202,7.8,10.4,77,0.00,OVC,,0.00,0.0,WeatherDisplay:10.37,2013-02-11 05:15:00,
2013-02-11 00:20:00,40.6,34.0,29.71,SW,225,7.1,10.4,77,0.00,OVC,,0.00,0.0,WeatherDisplay:10.37,2013-02-11 05:20:00,
2013-02-11 00:25:00,40.5,33.8,29.71,SSE,158,9.7,11.5,77,0.00,OVC,,0.00,0.0,WeatherDisplay:10.37,2013-02-11 05:25:00,
2013-02-11 00:30:00,40.5,33.8,29.71,SSE,158,6.4,8.1,77,0.00,OVC,,0.00,0.0,WeatherDisplay:10.37,2013-02-11 05:30:00,
2013-02-11 00:35:00,40.5,34.1,29.71,SSW,202,6.0,8.7,78,0.00,OVC,,0.00,0.0,WeatherDisplay:10.37,2013-02-11 05:35:00,
2013-02-11 00:40:00,40.5,34.1,29.68,SSE,158,6.2,9.2,78,0.00,OVC,,0.00,0.0,WeatherDisplay:10.37,2013-02-11 05:40:00,
2013-02-11 00:45:00,40.5,34.1,29.68,South,180,9.2,12.7,78,0.00,OVC,,0.00,0.0,WeatherDisplay:10.37,2013-02-11 05:45:00,
2013-02-11 00:50:00,40.5,34.1,29.68,SSE,158,6.4,11.5,78,0.00,OVC,,0.00,0.0,WeatherDisplay:10.37,2013-02-11 05:50:00,
2013-02-11 00:55:00,40.5,34.1,29.68,SSW,202,7.4,11.5,78,0.00,OVC,,0.00,0.0,WeatherDisplay:10.37,2013-02-11 05:55:00,
2013-02-11 01:00:00,40.6,34.6,29.68,South,180,5.9,8.7,79,0.00,OVC,,0.00,0.0,WeatherDisplay:10.37,2013-02-11 06:00:00,
2013-02-11 01:05:00,40.6,34.6,29.68,SSE,158,6.4,9.2,79,0.00,OVC,,0.00,0.0,WeatherDisplay:10.37,2013-02-11 06:05:00,
2013-02-11 01:10:00,40.6,34.6,29.68,SSE,158,9.0,10.4,79,0.00,OVC,,0.00,0.0,WeatherDisplay:10.37,2013-02-11 06:10:00,
2013-02-11 01:15:00,40.8,35.1,29.68,SSW,202,6.2,10.4,80,0.00,OVC,,0.00,0.0,WeatherDisplay:10.37,2013-02-11 06:15:00,
2013-02-11 01:20:00,40.8,35.1,29.68,SSW,202,5.9,9.2,80,0.00,OVC,,0.00,0.0,WeatherDisplay:10.37,2013-02-11 06:20:00,
2013-02-11 01:25:00,40.8,35.1,29.65,SSE,158,7.6,10.4,80,0.00,OVC,,0.00,0.0,WeatherDisplay:10.37,2013-02-11 06:25:00,
2013-02-11 01:30:00,40.8,35.1,29.65,South,180,9.0,12.7,80,0.00,OVC,,0.00,0.0,WeatherDisplay:10.37,2013-02-11 06:30:00,
2013-02-11 01:35:00,40.8,35.4,29.65,South,180,9.4,13.8,81,0.00,OVC,,0.00,0.0,WeatherDisplay:10.37,2013-02-11 06:35:00,
2013-02-11 01:40:00,40.8,35.4,29.65,SSW,202,8.5,12.7,81,0.00,OVC,,0.00,0.0,WeatherDisplay:10.37,2013-02-11 06:40:00,
2013-02-11 01:45:00,41.0,35.6,29.65,SSE,158,9.2,14.5,81,0.00,OVC,,0.00,0.0,WeatherDisplay:10.37,2013-02-11 06:45:00,
2013-02-11 01:50:00,41.0,35.9,29.65,SSW,202,10.9,15.0,82,0.00,OVC,,0.00,0.0,WeatherDisplay:10.37,2013-02-11 06:50:00,
2013-02-11 01:55:00,41.0,35.9,29.65,SSE,158,10.7,12.7,82,0.00,OVC,,0.00,0.0,WeatherDisplay:10.37,2013-02-11 06:55:00,
2013-02-11 02:00:00,41.2,36.1,29.65,SSE,158,9.8,13.8,82,0.00,OVC,,0.00,0.0,WeatherDisplay:10.37,2013-02-11 07:00:00,
2013-02-11 02:05:00,41.4,36.6,29.65,South,180,10.0,15.4,83,0.00,OVC,,0.00,0.0,WeatherDisplay:10.37,2013-02-11 07:05:00,
2013-02-11 02:10:00,41.4,36.6,29.65,SSW,202,13.2,15.0,83,0.00,OVC,,0.00,0.0,WeatherDisplay:10.37,2013-02-11 07:10:00,
2013-02-11 02:15:00,41.5,37.1,29.65,SSE,158,13.8,21.9,84,0.00,OVC,,0.00,0.0,WeatherDisplay:10.37,2013-02-11 07:15:00,
2013-02-11 02:20:00,41.5,37.1,29.65,South,180,10.2,13.8,84,0.00,OVC,,0.00,0.0,WeatherDisplay:10.37,2013-02-11 07:20:00,
2013-02-11 02:25:00,41.7,37.2,29.65,SSE,158,11.8,17.3,84,0.00,OVC,,0.00,0.0,WeatherDisplay:10.37,2013-02-11 07:25:00,
2013-02-11 02:30:00,41.7,37.5,29.65,SSE,158,11.2,15.2,85,0.00,OVC,,0.00,0.0,WeatherDisplay:10.37,2013-02-11 07:30:00,
2013-02-11 02:35:00,41.7,37.5,29.65,SSE,158,9.0,13.8,85,0.00,OVC,,0.00,0.0,WeatherDisplay:10.37,2013-02-11 07:35:00,
2013-02-11 02:40:00,41.7,37.5,29.65,SSW,202,13.8,17.3,85,0.00,OVC,,0.00,0.0,WeatherDisplay:10.37,2013-02-11 07:40:00,
2013-02-11 02:45:00,41.7,37.8,29.65,SSE,158,12.1,15.0,86,0.00,OVC,,0.00,0.0,WeatherDisplay:10.37,2013-02-11 07:45:00,
2013-02-11 02:50:00,41.9,38.0,29.65,SSW,202,10.2,15.0,86,0.00,OVC,,0.00,0.0,WeatherDisplay:10.37,2013-02-11 07:50:00,
2013-02-11 02:55:00,41.9,38.0,29.65,SSW,202,9.8,17.3,86,0.00,OVC,,0.00,0.0,WeatherDisplay:10.37,2013-02-11 07:55:00,
2013-02-11 03:00:00,41.9,38.0,29.65,South,180,9.4,15.0,86,0.00,OVC,,0.00,0.0,WeatherDisplay:10.37,2013-02-11 08:00:00,
2013-02-11 03:05:00,42.1,38.2,29.65,SSW,202,13.2,15.0,86,0.00,OVC,,0.00,0.0,WeatherDisplay:10.37,2013-02-11 08:05:00,
2013-02-11 03:10:00,42.1,38.5,29.62,SSW,202,13.5,15.0,87,0.00,OVC,,0.00,0.0,WeatherDisplay:10.37,2013-02-11 08:10:00,
2013-02-11 03:15:00,42.1,38.5,29.62,South,180,11.8,15.0,87,0.00,OVC,,0.00,0.0,WeatherDisplay:10.37,2013-02-11 08:15:00,
2013-02-11 03:20:00,42.3,38.7,29.62,SSW,202,14.0,19.6,87,0.00,OVC,,0.00,0.0,WeatherDisplay:10.37,2013-02-11 08:20:00,
2013-02-11 03:25:00,42.3,38.7,29.62,SSW,202,15.9,20.7,87,0.00,OVC,,0.00,0.0,WeatherDisplay:10.37,2013-02-11 08:25:00,
2013-02-11 03:30:00,42.3,39.0,29.62,South,180,8.1,12.7,88,0.00,OVC,,0.00,0.0,WeatherDisplay:10.37,2013-02-11 08:30:00,
2013-02-11 03:35:00,42.3,39.0,29.62,SSE,158,9.7,12.7,88,0.00,OVC,,0.00,0.0,WeatherDisplay:10.37,2013-02-11 08:35:00,
2013-02-11 03:40:00,42.4,39.1,29.59,SSE,158,15.4,23.0,88,0.00,OVC,,0.00,0.0,WeatherDisplay:10.37,2013-02-11 08:40:00,
2013-02-11 03:45:00,42.4,39.4,29.59,SSE,158,14.3,16.1,89,0.00,OVC,,0.00,0.0,WeatherDisplay:10.37,2013-02-11 08:45:00,
2013-02-11 03:50:00,42.4,39.4,29.59,South,180,13.5,17.3,89,0.00,OVC,,0.00,0.0,WeatherDisplay:10.37,2013-02-11 08:50:00,
2013-02-11 03:55:00,42.4,39.4,29.59,SSW,202,9.4,13.8,89,0.00,OVC,,0.00,0.0,WeatherDisplay:10.37,2013-02-11 08:55:00,
2013-02-11 04:00:00,42.6,39.6,29.59,South,180,7.4,10.5,89,0.00,OVC,,0.00,0.0,WeatherDisplay:10.37,2013-02-11 09:00:00,
2013-02-11 04:05:00,42.6,39.6,29.59,WSW,248,13.0,15.0,89,0.00,OVC,,0.00,0.0,WeatherDisplay:10.37,2013-02-11 09:05:00,
2013-02-11 04:10:00,42.6,39.6,29.59,SSE,158,12.1,18.4,89,0.00,OVC,,0.00,0.0,WeatherDisplay:10.37,2013-02-11 09:10:00,
2013-02-11 04:15:00,42.8,39.8,29.59,SSE,158,7.6,10.4,89,0.00,OVC,,0.00,0.0,WeatherDisplay:10.37,2013-02-11 09:15:00,
2013-02-11 04:20:00,42.8,39.8,29.59,SSE,158,10.7,13.8,89,0.00,OVC,,0.00,0.0,WeatherDisplay:10.37,2013-02-11 09:20:00,
2013-02-11 04:25:00,42.8,39.8,29.59,SSE,158,13.0,15.2,89,0.00,OVC,,0.00,0.0,WeatherDisplay:10.37,2013-02-11 09:25:00,
2013-02-11 04:30:00,42.8,39.8,29.59,SSW,202,7.6,16.1,89,0.00,OVC,,0.00,0.0,WeatherDisplay:10.37,2013-02-11 09:30:00,
2013-02-11 04:35:00,42.8,40.1,29.59,SSW,202,6.4,12.7,90,0.00,OVC,,0.00,0.0,WeatherDisplay:10.37,2013-02-11 09:35:00,
2013-02-11 04:40:00,42.8,40.1,29.59,SSE,158,12.5,12.8,90,0.00,OVC,,0.00,0.0,WeatherDisplay:10.37,2013-02-11 09:40:00,
2013-02-11 04:45:00,42.8,40.1,29.59,SSE,158,12.8,17.3,90,0.00,OVC,,0.00,0.0,WeatherDisplay:10.37,2013-02-11 09:45:00,
2013-02-11 04:50:00,42.8,40.1,29.59,SSW,202,12.3,15.0,90,0.00,OVC,,0.00,0.0,WeatherDisplay:10.37,2013-02-11 09:50:00,
2013-02-11 04:55:00,42.8,40.1,29.59,SSW,202,10.7,15.0,90,0.00,OVC,,0.00,0.0,WeatherDisplay:10.37,2013-02-11 09:55:00,
2013-02-11 05:00:00,43.0,40.2,29.59,SSW,202,9.0,13.8,90,0.00,OVC,,0.00,0.0,WeatherDisplay:10.37,2013-02-11 10:00:00,
2013-02-11 05:05:00,43.0,40.2,29.59,South,180,11.4,13.8,90,0.00,OVC,,0.00,0.0,WeatherDisplay:10.37,2013-02-11 10:05:00,
2013-02-11 05:10:00,43.0,40.2,29.59,SSE,158,10.7,17.3,90,0.00,OVC,,0.00,0.0,WeatherDisplay:10.37,2013-02-11 10:10:00,
2013-02-11 05:15:00,43.2,40.4,29.59,South,180,10.9,13.8,90,0.00,OVC,,0.00,0.0,WeatherDisplay:10.37,2013-02-11 10:15:00,
2013-02-11 05:20:00,43.2,40.7,29.59,SSE,158,11.8,13.8,91,0.00,OVC,,0.00,0.0,WeatherDisplay:10.37,2013-02-11 10:20:00,
2013-02-11 05:25:00,43.2,40.7,29.59,SE,135,12.1,18.4,91,0.00,OVC,,0.00,0.0,WeatherDisplay:10.37,2013-02-11 10:25:00,
2013-02-11 05:30:00,43.2,40.7,29.59,SSE,158,9.2,11.5,91,0.00,OVC,,0.00,0.0,WeatherDisplay:10.37,2013-02-11 10:30:00,
2013-02-11 05:35:00,43.2,40.4,29.59,SSW,202,11.2,13.8,90,0.00,OVC,,0.00,0.0,WeatherDisplay:10.37,2013-02-11 10:35:00,
2013-02-11 05:40:00,43.2,40.4,29.59,SW,225,10.0,18.4,90,0.00,OVC,,0.00,0.0,WeatherDisplay:10.37,2013-02-11 10:40:00,
2013-02-11 05:45:00,43.2,40.7,29.59,SSW,202,9.0,15.0,91,0.00,OVC,,0.00,0.0,WeatherDisplay:10.37,2013-02-11 10:45:00,
2013-02-11 05:50:00,43.2,40.7,29.59,SW,225,16.8,18.4,91,0.00,OVC,,0.00,0.0,WeatherDisplay:10.37,2013-02-11 10:50:00,
2013-02-11 05:55:00,43.2,40.7,29.59,WSW,248,10.7,17.0,91,0.00,OVC,,0.00,0.0,WeatherDisplay:10.37,2013-02-11 10:55:00,
2013-02-11 06:00:00,43.2,40.7,29.59,SW,225,15.2,21.9,91,0.00,OVC,,0.00,0.0,WeatherDisplay:10.37,2013-02-11 11:00:00,
2013-02-11 06:05:00,43.0,40.0,29.59,WSW,248,10.0,13.8,89,0.00,OVC,,0.00,0.0,WeatherDisplay:10.37,2013-02-11 11:05:00,
2013-02-11 06:10:00,43.0,39.4,29.56,WSW,248,14.7,17.3,87,0.00,OVC,,0.00,0.0,WeatherDisplay:10.37,2013-02-11 11:10:00,
2013-02-11 06:15:00,43.0,39.1,29.56,WSW,248,7.8,12.7,86,0.00,OVC,,0.00,0.0,WeatherDisplay:10.37,2013-02-11 11:15:00,
2013-02-11 06:21:00,42.8,38.6,29.56,WNW,292,6.9,12.7,85,0.00,OVC,,0.00,0.0,WeatherDisplay:10.37,2013-02-11 11:21:00,
2013-02-11 06:26:00,42.6,37.8,29.59,SW,225,9.7,12.7,83,0.00,OVC,,0.00,0.0,WeatherDisplay:10.37,2013-02-11 11:26:00,
2013-02-11 06:31:00,42.6,36.9,29.59,SW,225,14.0,20.7,80,0.00,OVC,,0.00,0.0,WeatherDisplay:10.37,2013-02-11 11:31:00,
2013-02-11 06:36:00,42.6,36.2,29.59,SW,225,7.8,13.5,78,0.00,OVC,,0.00,0.0,WeatherDisplay:10.37,2013-02-11 11:36:00,
2013-02-11 06:41:00,42.6,35.2,29.59,SW,225,10.5,13.8,75,0.00,OVC,,0.00,0.0,WeatherDisplay:10.37,2013-02-11 11:41:00,
2013-02-11 06:46:00,42.4,35.1,29.59,WSW,248,8.5,12.1,75,0.00,OVC,,0.00,0.0,WeatherDisplay:10.37,2013-02-11 11:46:00,
2013-02-11 06:51:00,42.4,34.7,29.59,West,270,8.7,15.0,74,0.00,OVC,,0.00,0.0,WeatherDisplay:10.37,2013-02-11 11:51:00,
2013-02-11 06:56:00,42.4,34.0,29.59,WNW,292,12.1,17.3,72,0.00,OVC,,0.00,0.0,WeatherDisplay:10.37,2013-02-11 11:56:00,
2013-02-11 07:01:00,42.4,33.7,29.59,WSW,248,8.1,8.1,71,0.00,OVC,,0.00,0.0,WeatherDisplay:10.37,2013-02-11 12:01:00,
2013-02-11 07:06:00,42.3,33.2,29.59,WSW,248,11.4,15.0,70,0.00,-RA,OVC,0.00,0.0,WeatherDisplay:10.37,2013-02-11 12:06:00,
2013-02-11 07:11:00,42.3,33.2,29.59,NW,315,7.4,19.9,70,0.00,-RA,OVC,0.00,0.0,WeatherDisplay:10.37,2013-02-11 12:11:00,
2013-02-11 07:16:00,42.1,32.6,29.59,SSW,202,10.5,15.0,69,0.04,-RA,OVC,0.04,0.0,WeatherDisplay:10.37,2013-02-11 12:16:00,
2013-02-11 07:21:00,42.1,30.8,29.59,SW,225,17.6,23.0,64,0.04,-RA,OVC,0.04,0.0,WeatherDisplay:10.37,2013-02-11 12:21:00,
2013-02-11 07:26:00,41.9,30.2,29.59,SW,225,11.4,21.5,63,0.08,-RA,OVC,0.08,0.0,WeatherDisplay:10.37,2013-02-11 12:26:00,
2013-02-11 07:31:00,41.7,29.6,29.59,WNW,292,13.7,18.7,62,0.08,-RA,OVC,0.08,0.0,WeatherDisplay:10.37,2013-02-11 12:31:00,
2013-02-11 07:36:00,41.7,29.6,29.59,SW,225,12.8,16.1,62,0.08,-RA,OVC,0.08,0.0,WeatherDisplay:10.37,2013-02-11 12:36:00,
2013-02-11 07:41:00,41.5,29.5,29.62,West,270,9.0,15.0,62,0.08,-RA,OVC,0.08,0.0,WeatherDisplay:10.37,2013-02-11 12:41:00,
2013-02-11 07:46:00,41.4,29.3,29.62,WSW,248,7.1,12.7,62,0.08,-RA,OVC,0.08,0.0,WeatherDisplay:10.37,2013-02-11 12:46:00,
2013-02-11 07:51:00,41.2,28.7,29.62,SSW,202,12.3,18.4,61,0.08,-RA,OVC,0.08,0.0,WeatherDisplay:10.37,2013-02-11 12:51:00,
2013-02-11 07:56:00,41.2,28.3,29.62,WSW,248,13.7,26.5,60,0.08,-RA,OVC,0.08,0.0,WeatherDisplay:10.37,2013-02-11 12:56:00,
2013-02-11 08:01:00,41.0,28.2,29.62,SW,225,19.9,26.8,60,0.08,-RA,OVC,0.08,0.0,WeatherDisplay:10.37,2013-02-11 13:01:00,
2013-02-11 08:06:00,41.0,28.2,29.62,SW,225,15.2,19.6,60,0.08,OVC,,0.08,0.0,WeatherDisplay:10.37,2013-02-11 13:06:00,
2013-02-11 08:11:00,40.8,27.6,29.62,SSW,202,21.5,28.8,59,0.08,OVC,,0.08,0.0,WeatherDisplay:10.37,2013-02-11 13:11:00,
2013-02-11 08:16:00,40.8,27.6,29.62,WSW,248,12.3,17.3,59,0.04,OVC,,0.08,0.0,WeatherDisplay:10.37,2013-02-11 13:16:00,
2013-02-11 08:21:00,40.6,27.8,29.62,SSW,202,15.9,26.3,60,0.04,OVC,,0.08,0.0,WeatherDisplay:10.37,2013-02-11 13:21:00,
2013-02-11 08:26:00,40.6,27.8,29.62,WSW,248,15.4,24.2,60,0.00,OVC,,0.08,0.0,WeatherDisplay:10.37,2013-02-11 13:26:00,
2013-02-11 08:31:00,40.5,27.7,29.62,SSW,202,15.4,24.2,60,0.00,OVC,,0.08,0.0,WeatherDisplay:10.37,2013-02-11 13:31:00,
2013-02-11 08:36:00,40.3,27.5,29.62,SSW,202,10.2,17.8,60,0.00,OVC,,0.08,0.0,WeatherDisplay:10.37,2013-02-11 13:36:00,
2013-02-11 08:41:00,40.3,27.5,29.62,SW,225,13.7,17.8,60,0.00,OVC,,0.08,0.0,WeatherDisplay:10.37,2013-02-11 13:41:00,
2013-02-11 08:46:00,40.1,27.3,29.62,SSW,202,18.7,25.6,60,0.00,OVC,,0.08,0.0,WeatherDisplay:10.37,2013-02-11 13:46:00,
2013-02-11 08:51:00,39.9,27.1,29.62,SW,225,12.3,17.3,60,0.00,OVC,,0.08,0.0,WeatherDisplay:10.37,2013-02-11 13:51:00,
2013-02-11 08:56:00,39.9,27.1,29.62,SSE,158,10.0,16.3,60,0.00,OVC,,0.08,0.0,WeatherDisplay:10.37,2013-02-11 13:56:00,
2013-02-11 09:01:00,39.7,27.0,29.62,SW,225,14.7,19.7,60,0.00,OVC,,0.08,0.0,WeatherDisplay:10.37,2013-02-11 14:01:00,
2013-02-11 09:06:00,39.7,27.0,29.62,SW,225,14.0,24.2,60,0.00,OVC,,0.08,0.0,WeatherDisplay:10.37,2013-02-11 14:06:00,
2013-02-11 09:11:00,39.6,26.8,29.62,SSW,202,14.3,17.5,60,0.00,OVC,,0.08,0.0,WeatherDisplay:10.37,2013-02-11 14:11:00,
2013-02-11 09:16:00,39.6,26.8,29.62,WSW,248,10.9,21.9,60,0.00,OVC,,0.08,0.0,WeatherDisplay:10.37,2013-02-11 14:16:00,
2013-02-11 09:21:00,39.4,26.6,29.62,WSW,248,12.1,18.4,60,0.00,OVC,,0.08,0.0,WeatherDisplay:10.37,2013-02-11 14:21:00,
2013-02-11 09:26:00,39.2,26.5,29.62,WSW,248,13.5,17.8,60,0.00,OVC,,0.08,0.0,WeatherDisplay:10.37,2013-02-11 14:26:00,
2013-02-11 09:31:00,39.2,26.5,29.62,SSW,202,9.7,17.3,60,0.00,OVC,,0.08,0.0,WeatherDisplay:10.37,2013-02-11 14:31:00,
2013-02-11 09:36:00,39.0,26.7,29.62,SSW,202,13.7,19.7,61,0.00,OVC,,0.08,0.0,WeatherDisplay:10.37,2013-02-11 14:36:00,
2013-02-11 09:41:00,38.8,26.1,29.62,SW,225,13.5,20.7,60,0.00,OVC,,0.08,0.0,WeatherDisplay:10.37,2013-02-11 14:41:00,
2013-02-11 09:46:00,38.7,26.0,29.62,WSW,248,11.4,19.6,60,0.00,OVC,,0.08,0.0,WeatherDisplay:10.37,2013-02-11 14:46:00,
2013-02-11 09:51:00,38.7,26.0,29.62,WSW,248,15.9,19.9,60,0.00,OVC,,0.08,0.0,WeatherDisplay:10.37,2013-02-11 14:51:00,
2013-02-11 09:56:00,38.5,25.8,29.62,WSW,248,15.2,23.7,60,0.00,OVC,,0.08,0.0,WeatherDisplay:10.37,2013-02-11 14:56:00,
2013-02-11 10:01:00,38.3,25.6,29.62,WSW,248,14.5,23.7,60,0.00,OVC,,0.08,0.0,WeatherDisplay:10.37,2013-02-11 15:01:00,
2013-02-11 10:06:00,38.1,25.4,29.62,SSW,202,13.0,19.6,60,0.00,OVC,,0.08,0.0,WeatherDisplay:10.37,2013-02-11 15:06:00,
2013-02-11 10:11:00,37.9,25.3,29.65,WSW,248,14.5,17.3,60,0.00,OVC,,0.08,0.0,WeatherDisplay:10.37,2013-02-11 15:11:00,
2013-02-11 10:16:00,37.8,25.1,29.65,SSW,202,14.5,25.3,60,0.00,OVC,,0.08,0.0,WeatherDisplay:10.37,2013-02-11 15:16:00,
2013-02-11 10:21:00,37.8,25.1,29.65,WSW,248,10.2,17.3,60,0.00,OVC,,0.08,0.0,WeatherDisplay:10.37,2013-02-11 15:21:00,
2013-02-11 10:26:00,37.6,24.9,29.65,WSW,248,13.2,31.1,60,0.00,OVC,,0.08,0.0,WeatherDisplay:10.37,2013-02-11 15:26:00,
2013-02-11 10:31:00,37.6,24.9,29.65,WSW,248,14.3,24.2,60,0.00,OVC,,0.08,0.0,WeatherDisplay:10.37,2013-02-11 15:31:00,
2013-02-11 10:36:00,37.4,24.8,29.65,WNW,292,10.9,15.0,60,0.00,OVC,,0.08,0.0,WeatherDisplay:10.37,2013-02-11 15:36:00,
2013-02-11 10:41:00,37.0,24.4,29.65,WSW,248,12.5,28.8,60,0.00,OVC,,0.08,0.0,WeatherDisplay:10.37,2013-02-11 15:41:00,
2013-02-11 10:46:00,36.9,24.3,29.65,WSW,248,16.3,27.6,60,0.00,OVC,,0.08,0.0,WeatherDisplay:10.37,2013-02-11 15:46:00,
2013-02-11 10:51:00,36.7,23.3,29.65,WSW,248,21.3,25.5,58,0.00,OVC,,0.08,0.0,WeatherDisplay:10.37,2013-02-11 15:51:00,
2013-02-11 10:56:00,36.5,22.7,29.62,West,270,20.1,34.5,57,0.00,OVC,,0.08,0.0,WeatherDisplay:10.37,2013-02-11 15:56:00,
2013-02-11 11:01:00,36.3,22.5,29.62,WSW,248,17.8,24.2,57,0.00,OVC,,0.08,0.0,WeatherDisplay:10.37,2013-02-11 16:01:00,
2013-02-11 11:06:00,36.3,22.5,29.62,WSW,248,21.9,25.1,57,0.00,OVC,,0.08,0.0,WeatherDisplay:10.37,2013-02-11 16:06:00,
2013-02-11 11:11:00,36.1,22.4,29.65,West,270,18.1,29.9,57,0.00,OVC,,0.08,0.0,WeatherDisplay:10.37,2013-02-11 16:11:00,
2013-02-11 11:16:00,36.1,22.4,29.65,WSW,248,19.0,29.4,57,0.00,OVC,,0.08,0.0,WeatherDisplay:10.37,2013-02-11 16:16:00,
2013-02-11 11:21:00,36.1,21.9,29.65,WSW,248,15.6,21.3,56,0.00,OVC,,0.08,0.0,WeatherDisplay:10.37,2013-02-11 16:21:00,
2013-02-11 11:26:00,36.0,21.3,29.65,WSW,248,25.3,28.8,55,0.00,OVC,,0.08,0.0,WeatherDisplay:10.37,2013-02-11 16:26:00,
2013-02-11 11:31:00,36.0,21.3,29.65,West,270,18.1,28.8,55,0.00,OVC,,0.08,100.0,WeatherDisplay:10.37,2013-02-11 16:31:00,
2013-02-11 11:36:00,36.0,21.3,29.65,SW,225,19.9,25.9,55,0.00,OVC,,0.08,100.0,WeatherDisplay:10.37,2013-02-11 16:36:00,
2013-02-11 11:41:00,36.0,21.3,29.62,SW,225,15.2,32.2,55,0.00,OVC,,0.08,100.0,WeatherDisplay:10.37,2013-02-11 16:41:00,
2013-02-11 11:46:00,36.0,21.3,29.62,WSW,248,16.3,27.6,55,0.00,OVC,,0.08,100.0,WeatherDisplay:10.37,2013-02-11 16:46:00,
2013-02-11 11:51:00,36.0,20.9,29.62,WNW,292,19.9,27.6,54,0.00,OVC,,0.08,100.0,WeatherDisplay:10.37,2013-02-11 16:51:00,
2013-02-11 11:56:00,36.0,20.9,29.65,SW,225,17.3,29.9,54,0.00,OVC,,0.08,100.0,WeatherDisplay:10.37,2013-02-11 16:56:00,
2013-02-11 12:01:00,36.0,20.9,29.65,WSW,248,17.3,25.3,54,0.00,OVC,,0.08,100.0,WeatherDisplay:10.37,2013-02-11 17:01:00,
2013-02-11 12:06:00,36.0,20.9,29.65,WSW,248,18.1,24.2,54,0.00,OVC,,0.08,100.0,WeatherDisplay:10.37,2013-02-11 17:06:00,
2013-02-11 12:11:00,36.0,20.9,29.65,West,270,14.7,25.6,54,0.00,OVC,,0.08,100.0,WeatherDisplay:10.37,2013-02-11 17:11:00,
2013-02-11 12:16:00,36.0,20.5,29.65,SW,225,23.9,31.1,53,0.00,OVC,,0.08,100.0,WeatherDisplay:10.37,2013-02-11 17:16:00,
2013-02-11 12:21:00,36.0,20.5,29.65,West,270,22.5,31.1,53,0.00,OVC,,0.08,100.0,WeatherDisplay:10.37,2013-02-11 17:21:00,
2013-02-11 12:26:00,36.0,20.5,29.65,SSW,202,22.5,29.9,53,0.00,OVC,,0.08,100.0,WeatherDisplay:10.37,2013-02-11 17:26:00,
2013-02-11 12:31:00,35.8,20.3,29.65,West,270,17.6,29.9,53,0.00,OVC,,0.08,100.0,WeatherDisplay:10.37,2013-02-11 17:31:00,
2013-02-11 12:36:00,36.0,20.5,29.65,West,270,12.8,20.4,53,0.00,OVC,,0.08,100.0,WeatherDisplay:10.37,2013-02-11 17:36:00,
2013-02-11 12:41:00,36.0,20.5,29.65,WSW,248,19.7,35.7,53,0.00,OVC,,0.08,200.0,WeatherDisplay:10.37,2013-02-11 17:41:00,
2013-02-11 12:46:00,36.0,20.5,29.65,WSW,248,14.7,28.8,53,0.00,OVC,,0.08,200.0,WeatherDisplay:10.37,2013-02-11 17:46:00,
2013-02-11 12:51:00,36.0,20.5,29.65,SSW,202,19.7,25.9,53,0.00,OVC,,0.08,100.0,WeatherDisplay:10.37,2013-02-11 17:51:00,
2013-02-11 12:56:00,35.8,20.7,29.65,WSW,248,13.0,23.0,54,0.00,OVC,,0.08,100.0,WeatherDisplay:10.37,2013-02-11 17:56:00,
2013-02-11 13:01:00,35.8,20.3,29.65,WSW,248,19.4,25.3,53,0.00,OVC,,0.08,100.0,WeatherDisplay:10.37,2013-02-11 18:01:00,
2013-02-11 13:06:00,35.8,20.3,29.65,SSW,202,17.8,25.3,53,0.00,OVC,,0.08,100.0,WeatherDisplay:10.37,2013-02-11 18:06:00,
2013-02-11 13:11:00,35.8,20.3,29.65,SW,225,18.5,23.0,53,0.00,OVC,,0.08,200.0,WeatherDisplay:10.37,2013-02-11 18:11:00,
2013-02-11 13:16:00,35.8,20.3,29.65,SSW,202,16.8,31.1,53,0.00,OVC,,0.08,100.0,WeatherDisplay:10.37,2013-02-11 18:16:00,
2013-02-11 13:21:00,36.0,20.5,29.65,WSW,248,20.1,33.9,53,0.00,OVC,,0.08,100.0,WeatherDisplay:10.37,2013-02-11 18:21:00,
2013-02-11 13:26:00,35.8,20.3,29.68,WNW,292,12.1,15.0,53,0.00,OVC,,0.08,100.0,WeatherDisplay:10.37,2013-02-11 18:26:00,
2013-02-11 13:31:00,36.0,20.9,29.68,SSW,202,19.7,24.2,54,0.00,OVC,,0.08,100.0,WeatherDisplay:10.37,2013-02-11 18:31:00,
2013-02-11 13:36:00,35.8,20.7,29.68,SSW,202,11.4,19.6,54,0.00,OVC,,0.08,100.0,WeatherDisplay:10.37,2013-02-11 18:36:00,
2013-02-11 13:41:00,35.8,20.3,29.68,SSW,202,21.3,27.6,53,0.00,OVC,,0.08,100.0,WeatherDisplay:10.37,2013-02-11 18:41:00,
2013-02-11 13:46:00,35.8,20.7,29.68,SSW,202,19.0,23.0,54,0.00,OVC,,0.08,100.0,WeatherDisplay:10.37,2013-02-11 18:46:00,
2013-02-11 13:51:00,36.0,20.9,29.68,SSW,202,20.8,24.2,54,0.00,OVC,,0.08,100.0,WeatherDisplay:10.37,2013-02-11 18:51:00,
2013-02-11 13:56:00,35.8,20.7,29.65,WSW,248,14.0,23.0,54,0.00,OVC,,0.08,100.0,WeatherDisplay:10.37,2013-02-11 18:56:00,
2013-02-11 14:01:00,36.0,20.9,29.65,WNW,292,12.8,17.3,54,0.00,OVC,,0.08,100.0,WeatherDisplay:10.37,2013-02-11 19:01:00,
2013-02-11 14:06:00,36.0,20.9,29.65,WNW,292,9.7,13.0,54,0.00,OVC,,0.08,100.0,WeatherDisplay:10.37,2013-02-11 19:06:00,
2013-02-11 14:11:00,36.0,20.9,29.65,WSW,248,20.1,21.9,54,0.00,OVC,,0.08,100.0,WeatherDisplay:10.37,2013-02-11 19:11:00,
2013-02-11 14:16:00,36.0,20.9,29.65,SSW,202,12.8,23.0,54,0.00,OVC,,0.08,100.0,WeatherDisplay:10.37,2013-02-11 19:16:00,
2013-02-11 14:21:00,35.8,21.2,29.65,West,270,13.7,17.3,55,0.00,OVC,,0.08,100.0,WeatherDisplay:10.37,2013-02-11 19:21:00,
2013-02-11 14:26:00,35.8,21.2,29.65,West,270,12.8,24.2,55,0.00,OVC,,0.08,100.0,WeatherDisplay:10.37,2013-02-11 19:26:00,
2013-02-11 14:31:00,35.8,21.2,29.65,West,270,13.5,23.0,55,0.00,OVC,,0.08,100.0,WeatherDisplay:10.37,2013-02-11 19:31:00,
2013-02-11 14:36:00,35.8,21.2,29.65,SSW,202,12.8,22.5,55,0.00,OVC,,0.08,100.0,WeatherDisplay:10.37,2013-02-11 19:36:00,
2013-02-11 14:41:00,35.8,21.2,29.68,West,270,14.0,27.6,55,0.00,OVC,,0.08,0.0,WeatherDisplay:10.37,2013-02-11 19:41:00,
2013-02-11 14:46:00,35.8,21.2,29.68,WSW,248,18.1,23.0,55,0.00,OVC,,0.08,0.0,WeatherDisplay:10.37,2013-02-11 19:46:00,
2013-02-11 14:51:00,35.8,21.2,29.68,WSW,248,15.4,24.2,55,0.00,OVC,,0.08,0.0,WeatherDisplay:10.37,2013-02-11 19:51:00,
2013-02-11 14:56:00,35.8,21.2,29.71,WNW,292,12.3,20.7,55,0.00,OVC,,0.08,0.0,WeatherDisplay:10.37,2013-02-11 19:56:00,
2013-02-11 15:01:00,35.8,20.7,29.71,WSW,248,17.0,24.2,54,0.00,OVC,,0.08,0.0,WeatherDisplay:10.37,2013-02-11 20:01:00,
2013-02-11 15:06:00,35.8,21.2,29.71,West,270,17.8,23.0,55,0.00,OVC,,0.08,0.0,WeatherDisplay:10.37,2013-02-11 20:06:00,
2013-02-11 15:11:00,35.8,20.7,29.71,WNW,292,15.4,19.6,54,0.00,OVC,,0.08,0.0,WeatherDisplay:10.37,2013-02-11 20:11:00,
2013-02-11 15:16:00,35.6,20.6,29.71,WSW,248,18.7,26.5,54,0.00,OVC,,0.08,0.0,WeatherDisplay:10.37,2013-02-11 20:16:00,
2013-02-11 15:21:00,35.6,20.6,29.71,SW,225,17.3,31.1,54,0.00,OVC,,0.08,0.0,WeatherDisplay:10.37,2013-02-11 20:21:00,
2013-02-11 15:26:00,35.6,20.6,29.71,WSW,248,16.8,26.5,54,0.00,OVC,,0.08,0.0,WeatherDisplay:10.37,2013-02-11 20:26:00,
2013-02-11 15:31:00,35.6,20.6,29.71,WSW,248,13.7,18.4,54,0.00,OVC,,0.08,0.0,WeatherDisplay:10.37,2013-02-11 20:31:00,
2013-02-11 15:36:00,35.6,20.6,29.71,West,270,12.3,24.2,54,0.00,OVC,,0.08,0.0,WeatherDisplay:10.37,2013-02-11 20:36:00,
2013-02-11 15:41:00,35.6,20.6,29.71,WNW,292,12.5,24.2,54,0.00,OVC,,0.08,0.0,WeatherDisplay:10.37,2013-02-11 20:41:00,
2013-02-11 15:46:00,35.4,20.4,29.71,West,270,9.7,26.5,54,0.00,OVC,,0.08,0.0,WeatherDisplay:10.37,2013-02-11 20:46:00,
2013-02-11 15:51:00,35.6,20.6,29.71,WNW,292,9.4,16.1,54,0.00,OVC,,0.08,0.0,WeatherDisplay:10.37,2013-02-11 20:51:00,
2013-02-11 15:56:00,35.6,20.6,29.71,NW,315,17.0,21.9,54,0.00,OVC,,0.08,0.0,WeatherDisplay:10.37,2013-02-11 20:56:00,
2013-02-11 16:01:00,35.4,20.8,29.71,WNW,292,15.2,24.2,55,0.00,OVC,,0.08,0.0,WeatherDisplay:10.37,2013-02-11 21:01:00,
2013-02-11 16:06:00,35.4,20.8,29.71,SSW,202,16.6,26.5,55,0.00,OVC,,0.08,0.0,WeatherDisplay:10.37,2013-02-11 21:06:00,
2013-02-11 16:11:00,35.4,20.8,29.71,SW,225,13.0,23.0,55,0.00,OVC,,0.08,0.0,WeatherDisplay:10.37,2013-02-11 21:11:00,
2013-02-11 16:16:00,35.4,20.8,29.71,SW,225,12.3,15.0,55,0.00,OVC,,0.08,0.0,WeatherDisplay:10.37,2013-02-11 21:16:00,
2013-02-11 16:21:00,35.4,20.8,29.71,SW,225,11.4,18.4,55,0.00,OVC,,0.08,0.0,WeatherDisplay:10.37,2013-02-11 21:21:00,
2013-02-11 16:26:00,35.2,20.7,29.74,WNW,292,18.7,27.6,55,0.00,OVC,,0.08,0.0,WeatherDisplay:10.37,2013-02-11 21:26:00,
2013-02-11 16:31:00,35.2,21.1,29.74,WSW,248,6.7,18.4,56,0.00,OVC,,0.08,0.0,WeatherDisplay:10.37,2013-02-11 21:31:00,
2013-02-11 16:36:00,35.2,21.1,29.74,WNW,292,13.7,24.2,56,0.00,OVC,,0.08,0.0,WeatherDisplay:10.37,2013-02-11 21:36:00,
2013-02-11 16:41:00,35.1,20.9,29.74,WSW,248,10.2,14.7,56,0.00,OVC,,0.08,0.0,WeatherDisplay:10.37,2013-02-11 21:41:00,
2013-02-11 16:46:00,35.1,20.9,29.74,West,270,19.2,23.0,56,0.00,OVC,,0.08,0.0,WeatherDisplay:10.37,2013-02-11 21:46:00,
2013-02-11 16:51:00,35.1,20.9,29.74,WSW,248,9.4,15.0,56,0.00,OVC,,0.08,0.0,WeatherDisplay:10.37,2013-02-11 21:51:00,
2013-02-11 16:56:00,35.1,21.3,29.77,WSW,248,9.4,15.9,57,0.00,OVC,,0.08,0.0,WeatherDisplay:10.37,2013-02-11 21:56:00,
2013-02-11 17:01:00,35.1,21.3,29.77,WSW,248,7.1,12.7,57,0.00,OVC,,0.08,0.0,WeatherDisplay:10.37,2013-02-11 22:01:00,
2013-02-11 17:06:00,35.1,21.3,29.77,WSW,248,12.3,19.6,57,0.00,OVC,,0.08,0.0,WeatherDisplay:10.37,2013-02-11 22:06:00,
2013-02-11 17:11:00,35.1,21.3,29.77,SW,225,15.4,22.3,57,0.00,OVC,,0.08,0.0,WeatherDisplay:10.37,2013-02-11 22:11:00,
2013-02-11 17:16:00,35.1,21.3,29.77,West,270,14.3,24.2,57,0.00,OVC,,0.08,0.0,WeatherDisplay:10.37,2013-02-11 22:16:00,
2013-02-11 17:21:00,35.1,21.8,29.77,WSW,248,10.5,15.2,58,0.00,OVC,,0.08,0.0,WeatherDisplay:10.37,2013-02-11 22:21:00,
2013-02-11 17:26:00,35.1,21.8,29.77,WSW,248,13.2,19.6,58,0.00,OVC,,0.08,0.0,WeatherDisplay:10.37,2013-02-11 22:26:00,
2013-02-11 17:31:00,35.1,21.8,29.77,WSW,248,7.4,10.5,58,0.00,OVC,,0.08,0.0,WeatherDisplay:10.37,2013-02-11 22:31:00,
2013-02-11 17:36:00,35.1,21.8,29.77,WSW,248,19.4,28.4,58,0.00,OVC,,0.08,0.0,WeatherDisplay:10.37,2013-02-11 22:36:00,
2013-02-11 17:41:00,35.1,21.8,29.80,WSW,248,14.7,17.3,58,0.00,OVC,,0.08,0.0,WeatherDisplay:10.37,2013-02-11 22:41:00,
2013-02-11 17:46:00,35.1,21.8,29.80,WNW,292,9.2,17.6,58,0.00,OVC,,0.08,0.0,WeatherDisplay:10.37,2013-02-11 22:46:00,
2013-02-11 17:51:00,34.9,21.6,29.80,WSW,248,6.4,12.7,58,0.00,OVC,,0.08,0.0,WeatherDisplay:10.37,2013-02-11 22:51:00,
2013-02-11 17:56:00,34.9,21.6,29.80,SW,225,10.2,26.1,58,0.00,OVC,,0.08,0.0,WeatherDisplay:10.37,2013-02-11 22:56:00,
2013-02-11 18:02:00,34.9,21.6,29.80,SW,225,10.7,20.1,58,0.00,OVC,,0.08,0.0,WeatherDisplay:10.37,2013-02-11 23:02:00,
2013-02-11 18:07:00,35.2,22.3,29.80,WSW,248,13.7,19.6,59,0.00,OVC,,0.08,0.0,WeatherDisplay:10.37,2013-02-11 23:07:00,
2013-02-11 18:12:00,35.2,22.3,29.77,WNW,292,11.2,17.3,59,0.00,OVC,,0.08,0.0,WeatherDisplay:10.37,2013-02-11 23:12:00,
2013-02-11 18:17:00,35.2,22.3,29.77,WNW,292,8.7,12.7,59,0.00,OVC,,0.08,0.0,WeatherDisplay:10.37,2013-02-11 23:17:00,
2013-02-11 18:22:00,35.2,21.9,29.77,WNW,292,16.3,18.4,58,0.00,OVC,,0.08,0.0,WeatherDisplay:10.37,2013-02-11 23:22:00,
2013-02-11 18:27:00,35.2,22.3,29.77,WSW,248,11.8,12.7,59,0.00,OVC,,0.08,0.0,WeatherDisplay:10.37,2013-02-11 23:27:00,
2013-02-11 18:32:00,35.2,21.9,29.77,WNW,292,13.8,24.2,58,0.00,OVC,,0.08,0.0,WeatherDisplay:10.37,2013-02-11 23:32:00,
2013-02-11 18:37:00,35.2,21.9,29.77,West,270,17.0,20.7,58,0.00,OVC,,0.08,0.0,WeatherDisplay:10.37,2013-02-11 23:37:00,
2013-02-11 18:42:00,35.2,21.9,29.80,WNW,292,12.8,17.3,58,0.00,OVC,,0.08,0.0,WeatherDisplay:10.37,2013-02-11 23:42:00,
2013-02-11 18:47:00,35.2,21.9,29.80,NNW,338,13.2,21.9,58,0.00,OVC,,0.08,0.0,WeatherDisplay:10.37,2013-02-11 23:47:00,
2013-02-11 18:52:00,35.1,21.8,29.80,WSW,248,10.7,27.6,58,0.00,OVC,,0.08,0.0,WeatherDisplay:10.37,2013-02-11 23:52:00,
2013-02-11 18:57:00,35.1,21.8,29.80,WSW,248,13.5,13.8,58,0.00,OVC,,0.08,0.0,WeatherDisplay:10.37,2013-02-11 23:57:00,
2013-02-11 19:02:00,35.1,21.8,29.80,West,270,10.9,17.3,58,0.00,OVC,,0.08,0.0,WeatherDisplay:10.37,2013-02-12 00:02:00,
2013-02-11 19:07:00,34.9,21.6,29.80,WSW,248,12.3,15.0,58,0.00,OVC,,0.08,0.0,WeatherDisplay:10.37,2013-02-12 00:07:00,
2013-02-11 19:12:00,34.9,21.6,29.83,SSW,202,15.4,23.0,58,0.00,OVC,,0.08,0.0,WeatherDisplay:10.37,2013-02-12 00:12:00,
2013-02-11 19:17:00,34.9,22.0,29.83,SW,225,10.7,14.3,59,0.00,OVC,,0.08,0.0,WeatherDisplay:10.37,2013-02-12 00:17:00,
2013-02-11 19:22:00,34.9,22.0,29.83,NW,315,10.0,13.8,59,0.00,OVC,,0.08,0.0,WeatherDisplay:10.37,2013-02-12 00:22:00,
2013-02-11 19:27:00,34.7,21.4,29.83,WNW,292,15.9,15.9,58,0.00,OVC,,0.08,0.0,WeatherDisplay:10.37,2013-02-12 00:27:00,
2013-02-11 19:32:00,34.5,21.2,29.83,WSW,248,17.0,25.3,58,0.00,OVC,,0.08,0.0,WeatherDisplay:10.37,2013-02-12 00:32:00,
2013-02-11 19:37:00,34.3,21.1,29.83,NW,315,12.3,19.6,58,0.00,OVC,,0.08,0.0,WeatherDisplay:10.37,2013-02-12 00:37:00,
2013-02-11 19:42:00,34.3,21.1,29.83,WNW,292,12.3,13.8,58,0.00,OVC,,0.08,0.0,WeatherDisplay:10.37,2013-02-12 00:42:00,
2013-02-11 19:47:00,34.3,21.1,29.83,WSW,248,17.8,29.9,58,0.00,OVC,,0.08,0.0,WeatherDisplay:10.37,2013-02-12 00:47:00,
2013-02-11 19:52:00,34.3,21.1,29.83,WSW,248,12.1,22.3,58,0.00,OVC,,0.08,0.0,WeatherDisplay:10.37,2013-02-12 00:52:00,
2013-02-11 19:57:00,34.2,20.9,29.83,WNW,292,14.7,28.8,58,0.00,OVC,,0.08,0.0,WeatherDisplay:10.37,2013-02-12 00:57:00,
2013-02-11 20:02:00,34.2,20.9,29.83,WNW,292,8.5,14.3,58,0.00,OVC,,0.08,0.0,WeatherDisplay:10.37,2013-02-12 01:02:00,
2013-02-11 20:07:00,34.2,20.9,29.83,West,270,14.5,17.3,58,0.00,OVC,,0.08,0.0,WeatherDisplay:10.37,2013-02-12 01:07:00,
2013-02-11 20:12:00,34.0,20.7,29.85,WNW,292,13.5,27.6,58,0.00,OVC,,0.08,0.0,WeatherDisplay:10.37,2013-02-12 01:12:00,
2013-02-11 20:17:00,34.0,20.7,29.85,NW,315,14.7,21.9,58,0.00,OVC,,0.08,0.0,WeatherDisplay:10.37,2013-02-12 01:17:00,
2013-02-11 20:22:00,34.0,20.7,29.85,WNW,292,10.7,25.5,58,0.00,OVC,,0.08,0.0,WeatherDisplay:10.37,2013-02-12 01:22:00,
2013-02-11 20:27:00,34.0,20.7,29.83,SW,225,12.3,15.0,58,0.00,OVC,,0.08,0.0,WeatherDisplay:10.37,2013-02-12 01:27:00,
2013-02-11 20:32:00,34.0,20.7,29.83,NNW,338,14.3,17.3,58,0.00,OVC,,0.08,0.0,WeatherDisplay:10.37,2013-02-12 01:32:00,
2013-02-11 20:37:00,33.8,20.6,29.83,WNW,292,12.3,16.1,58,0.00,OVC,,0.08,0.0,WeatherDisplay:10.37,2013-02-12 01:37:00,
2013-02-11 20:42:00,33.8,20.6,29.83,NW,315,13.7,17.3,58,0.00,OVC,,0.08,0.0,WeatherDisplay:10.37,2013-02-12 01:42:00,
2013-02-11 20:47:00,33.8,20.6,29.83,WNW,292,10.9,17.3,58,0.00,OVC,,0.08,0.0,WeatherDisplay:10.37,2013-02-12 01:47:00,
2013-02-11 20:52:00,33.6,20.8,29.83,WSW,248,9.0,15.0,59,0.00,OVC,,0.08,0.0,WeatherDisplay:10.37,2013-02-12 01:52:00,
2013-02-11 20:57:00,33.6,20.8,29.83,WSW,248,10.7,10.7,59,0.00,OVC,,0.08,0.0,WeatherDisplay:10.37,2013-02-12 01:57:00,
2013-02-11 21:02:00,33.6,20.8,29.83,WSW,248,6.2,11.5,59,0.00,OVC,,0.08,0.0,WeatherDisplay:10.37,2013-02-12 02:02:00,
2013-02-11 21:07:00,33.6,20.8,29.83,WSW,248,11.2,18.4,59,0.00,OVC,,0.08,0.0,WeatherDisplay:10.37,2013-02-12 02:07:00,
2013-02-11 21:12:00,33.6,20.8,29.83,WNW,292,6.9,17.3,59,0.00,OVC,,0.08,0.0,WeatherDisplay:10.37,2013-02-12 02:12:00,
2013-02-11 21:17:00,33.6,20.8,29.83,WNW,292,10.2,11.5,59,0.00,OVC,,0.08,0.0,WeatherDisplay:10.37,2013-02-12 02:17:00,
2013-02-11 21:22:00,33.6,20.8,29.83,WSW,248,10.7,13.8,59,0.00,OVC,,0.08,0.0,WeatherDisplay:10.37,2013-02-12 02:22:00,
2013-02-11 21:27:00,33.6,20.8,29.83,WSW,248,13.2,21.9,59,0.00,OVC,,0.08,0.0,WeatherDisplay:10.37,2013-02-12 02:27:00,
2013-02-11 21:32:00,33.4,20.6,29.83,WNW,292,14.5,26.5,59,0.00,OVC,,0.08,0.0,WeatherDisplay:10.37,2013-02-12 02:32:00,
2013-02-11 21:37:00,33.3,20.5,29.83,West,270,14.3,25.3,59,0.00,OVC,,0.08,0.0,WeatherDisplay:10.37,2013-02-12 02:37:00,
2013-02-11 21:42:00,33.3,20.5,29.85,NW,315,14.3,23.0,59,0.00,OVC,,0.08,0.0,WeatherDisplay:10.37,2013-02-12 02:42:00,
2013-02-11 21:47:00,33.3,20.5,29.85,WSW,248,11.4,16.1,59,0.00,OVC,,0.08,0.0,WeatherDisplay:10.37,2013-02-12 02:47:00,
2013-02-11 21:52:00,33.3,20.5,29.85,West,270,9.7,17.3,59,0.00,OVC,,0.08,0.0,WeatherDisplay:10.37,2013-02-12 02:52:00,
2013-02-11 21:57:00,33.3,20.5,29.85,WNW,292,10.0,22.5,59,0.00,OVC,,0.08,0.0,WeatherDisplay:10.37,2013-02-12 02:57:00,
2013-02-11 22:02:00,33.1,20.7,29.85,WSW,248,16.6,17.3,60,0.00,OVC,,0.08,0.0,WeatherDisplay:10.37,2013-02-12 03:02:00,
2013-02-11 22:07:00,33.1,20.7,29.85,WNW,292,10.0,15.4,60,0.00,OVC,,0.08,0.0,WeatherDisplay:10.37,2013-02-12 03:07:00,
2013-02-11 22:12:00,33.1,20.7,29.85,West,270,9.4,12.7,60,0.00,OVC,,0.08,0.0,WeatherDisplay:10.37,2013-02-12 03:12:00,
2013-02-11 22:17:00,33.1,20.7,29.85,West,270,11.2,18.4,60,0.00,OVC,,0.08,0.0,WeatherDisplay:10.37,2013-02-12 03:17:00,
2013-02-11 22:22:00,33.1,20.7,29.85,WNW,292,14.3,18.4,60,0.00,OVC,,0.08,0.0,WeatherDisplay:10.37,2013-02-12 03:22:00,
2013-02-11 22:27:00,33.1,20.7,29.85,WNW,292,10.5,15.0,60,0.00,OVC,,0.08,0.0,WeatherDisplay:10.37,2013-02-12 03:27:00,
2013-02-11 22:32:00,33.1,20.7,29.85,West,270,9.7,15.0,60,0.00,OVC,,0.08,0.0,WeatherDisplay:10.37,2013-02-12 03:32:00,
2013-02-11 22:37:00,33.1,20.7,29.85,WSW,248,12.8,16.1,60,0.00,OVC,,0.08,0.0,WeatherDisplay:10.37,2013-02-12 03:37:00,
2013-02-11 22:42:00,32.9,20.5,29.85,WNW,292,7.1,15.0,60,0.00,OVC,,0.08,0.0,WeatherDisplay:10.37,2013-02-12 03:42:00,
2013-02-11 22:47:00,32.9,20.9,29.85,West,270,9.7,10.4,61,0.00,OVC,,0.08,0.0,WeatherDisplay:10.37,2013-02-12 03:47:00,
2013-02-11 22:52:00,32.9,20.9,29.85,WNW,292,10.5,11.5,61,0.00,OVC,,0.08,0.0,WeatherDisplay:10.37,2013-02-12 03:52:00,
2013-02-11 22:57:00,32.9,20.9,29.85,WSW,248,9.0,16.1,61,0.00,OVC,,0.08,0.0,WeatherDisplay:10.37,2013-02-12 03:57:00,
2013-02-11 23:02:00,32.7,20.7,29.85,WNW,292,10.9,20.8,61,0.00,OVC,,0.08,0.0,WeatherDisplay:10.37,2013-02-12 04:02:00,
2013-02-11 23:07:00,32.7,20.7,29.85,WSW,248,9.0,13.8,61,0.00,OVC,,0.08,0.0,WeatherDisplay:10.37,2013-02-12 04:07:00,
2013-02-11 23:12:00,32.7,20.7,29.85,WNW,292,10.9,15.0,61,0.00,OVC,,0.08,0.0,WeatherDisplay:10.37,2013-02-12 04:12:00,
2013-02-11 23:17:00,32.7,20.7,29.85,WSW,248,10.0,16.1,61,0.00,OVC,,0.08,0.0,WeatherDisplay:10.37,2013-02-12 04:17:00,
2013-02-11 23:22:00,32.7,20.7,29.85,WNW,292,10.7,15.0,61,0.00,OVC,,0.08,0.0,WeatherDisplay:10.37,2013-02-12 04:22:00,
2013-02-11 23:27:00,32.7,20.7,29.85,West,270,10.7,15.0,61,0.00,OVC,,0.08,0.0,WeatherDisplay:10.37,2013-02-12 04:27:00,
2013-02-11 23:32:00,32.7,20.7,29.85,SW,225,11.8,19.6,61,0.00,OVC,,0.08,0.0,WeatherDisplay:10.37,2013-02-12 04:32:00,
2013-02-11 23:37:00,32.7,20.7,29.85,WNW,292,9.4,11.8,61,0.00,OVC,,0.08,0.0,WeatherDisplay:10.37,2013-02-12 04:37:00,
2013-02-11 23:42:00,32.5,20.6,29.85,West,270,10.2,15.0,61,0.00,OVC,,0.08,0.0,WeatherDisplay:10.37,2013-02-12 04:42:00,
2013-02-11 23:47:00,32.5,20.6,29.85,WNW,292,10.9,17.3,61,0.00,OVC,,0.08,0.0,WeatherDisplay:10.37,2013-02-12 04:47:00,
2013-02-11 23:52:00,32.5,20.6,29.85,WSW,248,9.2,13.8,61,0.00,OVC,,0.08,0.0,WeatherDisplay:10.37,2013-02-12 04:52:00,
2013-02-11 23:57:00,32.5,20.6,29.88,WSW,248,10.5,17.3,61,0.00,OVC,,0.08,0.0,WeatherDisplay:10.37,2013-02-12 04:57:00,